createdAt,value
2023-05-05T03:51:14.152Z,63.47
2023-05-05T03:54:18.280Z,62.05
2023-05-05T03:57:22.547Z,62.64
2023-05-05T04:00:29.539Z,60.69
2023-05-05T04:03:33.678Z,60.01
2023-05-05T04:06:39.606Z,58.71
2023-05-05T04:09:43.654Z,59.74
2023-05-05T04:12:47.771Z,59.74
2023-05-05T04:15:52.942Z,59.59
2023-05-05T04:18:56.590Z,59.02
2023-05-05T04:22:01.816Z,59.58
2023-05-05T04:25:07.325Z,60.09
2023-05-05T04:28:11.688Z,60.94
2023-05-05T04:31:15.423Z,61.35
2023-05-05T04:34:19.337Z,62.37
2023-05-05T04:37:23.409Z,59.64
2023-05-05T04:40:27.462Z,58.30
2023-05-05T04:43:34.684Z,57.49
2023-05-05T04:46:38.898Z,57.11
2023-05-05T04:49:42.830Z,56.34
2023-05-05T04:52:46.873Z,55.60
2023-05-05T04:55:50.921Z,54.54
2023-05-05T04:58:54.821Z,55.63
2023-05-05T05:05:20.646Z,58.81
2023-05-05T05:08:24.773Z,59.07
2023-05-05T05:11:29.175Z,59.30
2023-05-05T05:14:33.234Z,59.35
2023-05-05T05:17:36.972Z,59.18
2023-05-05T05:20:40.800Z,58.96
2023-05-05T05:23:44.608Z,60.87
2023-05-05T05:26:48.809Z,62.32
2023-05-05T05:29:52.846Z,62.06
2023-05-05T05:33:05.373Z,61.69
2023-05-05T05:36:09.411Z,60.92
2023-05-05T05:39:19.139Z,60.55
2023-05-05T05:42:23.346Z,59.55
2023-05-05T05:46:34.529Z,58.92
2023-05-05T05:49:11.761Z,60.47
2023-05-05T06:02:21.150Z,61.00
2023-05-05T06:05:25.054Z,59.61
2023-05-05T06:11:44.827Z,57.32
2023-05-05T11:09:56.489Z,41.93
2023-05-05T11:20:19.580Z,40.73
2023-05-05T11:30:37.484Z,40.45
2023-05-05T11:37:00.510Z,36.97
2023-05-05T11:50:22.145Z,37.12
2023-05-05T11:53:36.803Z,40.43
2023-05-05T11:59:58.860Z,40.02
2023-05-05T12:03:07.150Z,38.08
2023-05-05T12:06:24.418Z,37.55
2023-05-05T12:09:31.772Z,38.46
2023-05-05T12:12:37.259Z,37.21
2023-05-05T12:44:21.662Z,35.26
2023-05-05T12:57:33.565Z,39.66
2023-05-05T13:07:44.268Z,41.89
2023-05-05T13:10:45.726Z,40.44
2023-05-05T13:27:56.545Z,35.43
2023-05-05T13:31:13.633Z,34.56
2023-05-05T13:34:20.296Z,36.10
2023-05-05T13:37:37.832Z,35.12
2023-05-05T13:44:34.387Z,33.81
2023-05-05T13:47:32.542Z,33.86
2023-05-05T13:51:19.697Z,32.77
2023-05-05T13:54:24.826Z,32.35
2023-05-05T13:57:30.329Z,31.79
2023-05-05T14:00:42.247Z,31.72
2023-05-05T14:03:46.614Z,34.75
2023-05-05T14:10:19.917Z,34.83
2023-05-05T14:16:57.544Z,35.21
2023-05-05T14:30:27.196Z,33.66
2023-05-05T14:37:18.856Z,33.93
2023-05-05T14:43:40.685Z,35.21
2023-05-05T14:46:46.521Z,35.19
2023-05-05T14:49:53.340Z,34.03
2023-05-05T15:00:02.675Z,31.48
2023-05-05T15:03:13.172Z,32.52
2023-05-05T15:09:53.584Z,30.87
2023-05-05T15:12:59.891Z,30.66
2023-05-05T15:16:06.946Z,31.30
2023-05-05T15:19:12.647Z,31.52
2023-05-05T15:22:18.017Z,31.96
2023-05-05T15:25:38.201Z,31.08
2023-05-05T15:28:51.277Z,32.06
2023-05-05T15:31:58.727Z,31.14
2023-05-05T15:35:03.163Z,32.01
2023-05-05T15:38:30.725Z,32.21
2023-05-05T15:41:34.408Z,32.02
2023-05-05T15:44:49.070Z,32.22
2023-05-05T15:47:53.444Z,32.48
2023-05-05T15:51:15.757Z,33.69
2023-05-05T15:54:19.764Z,33.87
2023-05-05T15:57:26.049Z,33.50
2023-05-05T16:00:29.853Z,33.69
2023-05-05T16:03:52.512Z,33.07
2023-05-05T16:06:56.536Z,31.99
2023-05-05T16:10:03.134Z,32.94
2023-05-05T16:13:07.262Z,33.73
2023-05-05T16:16:11.472Z,33.59
2023-05-05T16:19:15.434Z,34.90
2023-05-05T16:22:19.658Z,35.40
2023-05-05T16:25:23.788Z,34.74
2023-05-05T16:28:29.086Z,35.49
2023-05-05T16:31:33.313Z,36.33
2023-05-05T16:34:36.882Z,37.16
2023-05-05T16:37:42.181Z,36.43
2023-05-05T16:40:46.416Z,37.29
2023-05-05T16:43:50.175Z,39.13
2023-05-05T16:46:54.463Z,39.52
2023-05-05T16:49:58.504Z,39.41
2023-05-05T16:53:02.714Z,39.33
2023-05-05T16:56:06.640Z,39.66
2023-05-05T16:59:10.855Z,39.52
2023-05-05T17:02:14.658Z,40.13
2023-05-05T17:05:18.820Z,39.47
2023-05-05T17:08:22.789Z,39.08
2023-05-05T17:11:26.742Z,39.15
2023-05-05T17:14:30.642Z,40.15
2023-05-05T17:17:34.258Z,39.16
2023-05-05T17:20:38.326Z,39.37
2023-05-05T17:23:42.630Z,38.57
2023-05-05T17:26:46.440Z,38.51
2023-05-05T17:29:50.255Z,39.38
2023-05-05T17:32:54.733Z,39.38
2023-05-05T17:35:59.107Z,38.97
2023-05-05T17:39:12.873Z,37.34
2023-05-05T17:45:39.929Z,38.62
2023-05-05T17:48:43.900Z,37.74
2023-05-05T17:51:48.093Z,38.41
2023-05-05T17:58:14.009Z,36.66
2023-05-05T18:01:17.854Z,37.61
2023-05-05T18:04:21.683Z,38.12
2023-05-05T18:07:25.976Z,38.32
2023-05-05T18:10:29.782Z,42.41
2023-05-05T18:13:35.531Z,43.24
2023-05-05T18:16:40.372Z,43.27
2023-05-05T18:19:47.803Z,43.93
2023-05-05T18:22:53.297Z,43.89
2023-05-05T18:25:57.124Z,43.97
2023-05-05T18:32:23.237Z,43.37
2023-05-05T18:35:28.611Z,44.82
2023-05-05T18:38:32.655Z,43.91
2023-05-05T18:41:36.508Z,45.73
2023-05-05T18:44:40.547Z,47.38
2023-05-05T18:47:44.373Z,44.92
2023-05-05T18:50:48.858Z,44.67
2023-05-05T18:53:52.874Z,45.07
2023-05-05T18:56:56.855Z,44.17
2023-05-05T19:00:01.051Z,43.07
2023-05-05T19:03:07.701Z,45.03
2023-05-05T19:06:12.000Z,46.00
2023-05-05T19:09:18.087Z,43.67
2023-05-05T19:12:21.913Z,43.43
2023-05-05T19:15:25.993Z,46.40
2023-05-05T19:18:30.305Z,46.39
2023-05-05T19:21:37.667Z,46.97
2023-05-05T19:24:41.626Z,48.36
2023-05-05T19:27:45.741Z,48.55
2023-05-05T19:30:51.815Z,46.09
2023-05-05T19:33:55.793Z,46.25
2023-05-05T19:37:00.052Z,47.49
2023-05-05T19:40:04.492Z,49.12
2023-05-05T19:43:08.710Z,50.36
2023-05-05T19:46:12.569Z,49.32
2023-05-05T19:49:16.598Z,49.64
2023-05-05T19:52:21.530Z,49.40
2023-05-05T19:55:25.355Z,49.24
2023-05-05T19:58:29.346Z,51.42
2023-05-05T20:01:33.276Z,50.47
2023-05-05T20:07:59.461Z,52.83
2023-05-05T20:11:04.380Z,51.30
2023-05-05T20:14:08.352Z,52.66
2023-05-05T20:17:12.200Z,52.34
2023-05-05T20:20:16.489Z,53.71
2023-05-05T20:23:21.940Z,54.20
2023-05-05T20:26:27.499Z,54.45
2023-05-05T20:29:35.676Z,52.54
2023-05-05T20:32:43.223Z,52.48
2023-05-05T20:35:47.117Z,54.75
2023-05-05T20:38:51.288Z,56.27
2023-05-05T20:41:54.955Z,54.91
2023-05-05T20:44:58.890Z,54.13
2023-05-05T20:48:02.645Z,55.73
2023-05-05T20:51:06.577Z,56.92
2023-05-05T20:54:10.772Z,55.27
2023-05-05T20:57:14.806Z,55.70
2023-05-05T21:00:20.261Z,55.56
2023-05-05T21:03:24.448Z,56.77
2023-05-05T21:06:28.247Z,57.51
2023-05-05T21:09:31.991Z,55.79
2023-05-05T21:12:36.138Z,54.33
2023-05-05T21:15:40.334Z,51.41
2023-05-05T21:18:44.402Z,50.59
2023-05-05T21:21:48.593Z,53.71
2023-05-05T21:24:52.512Z,52.92
2023-05-05T21:27:56.485Z,53.03
2023-05-05T21:31:20.515Z,51.52
2023-05-05T21:34:24.580Z,53.14
2023-05-05T21:37:28.278Z,54.26
2023-05-05T21:40:32.869Z,52.92
2023-05-05T21:43:36.850Z,52.88
2023-05-05T21:46:41.260Z,53.77
2023-05-05T21:49:45.877Z,55.22
2023-05-05T21:52:52.166Z,56.47
2023-05-05T21:55:56.345Z,56.94
2023-05-05T21:59:00.327Z,57.59
2023-05-05T22:02:04.317Z,55.57
2023-05-05T22:05:08.249Z,53.79
2023-05-05T22:08:12.307Z,54.45
2023-05-05T22:11:16.311Z,55.56
2023-05-05T22:14:20.116Z,56.20
2023-05-05T22:17:25.221Z,56.71
2023-05-05T22:20:29.381Z,57.91
2023-05-05T22:23:33.137Z,59.85
2023-05-05T22:26:37.065Z,60.34
2023-05-05T22:29:40.878Z,59.30
2023-05-05T22:32:44.834Z,59.03
2023-05-05T22:35:48.667Z,58.97
2023-05-05T22:38:52.357Z,58.86
2023-05-05T22:41:56.737Z,58.54
2023-05-05T22:45:00.841Z,58.00
2023-05-05T22:48:05.737Z,57.30
2023-05-05T22:51:09.876Z,57.16
2023-05-05T22:54:18.034Z,59.65
2023-05-05T22:57:22.187Z,59.17
2023-05-05T23:00:26.162Z,60.44
2023-05-05T23:03:32.126Z,60.88
2023-05-05T23:06:36.172Z,61.34
2023-05-05T23:09:42.206Z,60.83
2023-05-05T23:12:46.236Z,60.83
2023-05-05T23:15:50.027Z,60.64
2023-05-05T23:18:54.185Z,62.14
2023-05-05T23:21:58.106Z,62.29
2023-05-05T23:25:02.178Z,60.16
2023-05-05T23:28:07.693Z,58.90
2023-05-05T23:31:11.696Z,60.10
2023-05-05T23:34:15.770Z,61.48
2023-05-05T23:37:19.510Z,63.66
2023-05-05T23:40:23.764Z,62.33
2023-05-05T23:43:27.957Z,63.67
2023-05-05T23:46:32.476Z,62.85
2023-05-05T23:49:36.234Z,64.51
2023-05-05T23:56:02.187Z,63.84
2023-05-05T23:59:06.282Z,64.38
